메인 페이지
METAR-TAF:

METAR-TAF

공항 :

말린디, 케냐

위도: 03-14S, 경도: 040-06E, 고도: 20m

현재 날씨관측

예보는 1 시간 21분 전, 09:00시(UTC)에 발표되었습니다.
남남서12kt
온도 23°C
습도 89%
기압 1017 hPa
시정 10km 이상
고도 2000ft 상공 구름 많음
고도 9000ft 상공 흐림
비,

METAR: HKML 130900Z 21012KT 9999 RA BKN020 OVC090 23/21 Q1017

시각: 13:21 (10:21 UTC)

예보

예보는 5 시간 21분 전, 05:00시(UTC)에 발표되었습니다.
예보 대상 시간: 13일 06시부터 14일 06시까지 (UTC)
남서10kt
시정 10km 이상
고도 2100ft 상공 구름 보통
일시적
13일 10시부터 13일 11시까지 (UTC)
남남서20kt
고도 2300ft 상공 구름 보통
고도 9000ft 상공 구름 많음
약한소나기
전환 중
13일 15시부터 13일 18시까지 (UTC)
10kt
고도 2300ft 상공 구름 조금
고도 8000ft 상공 구름 보통
전환 중
14일 00시부터 14일 03시까지 (UTC)
남남서5kt
고도 2000ft 상공 구름 보통

TAF: HKML 130500Z 1306/1406 22010KT 9999 SCT021 TEMPO 1310/1311 21020KT -SHRA SCT023 BKN090 BECMG 1315/1318 18010KT NSW FEW023 SCT080 BECMG 1400/1403 21005KT SCT020

4,000개 이상의 공항 관측 자료 및 예보 (METAR 및 TAF 보고).

지도상에서 검색 가능한 기상관측소가 노란 점과 빨간 점으로 표시되어 있습니다.

기상관측소 명을 보려면 표시 위로 마우스를 이동하세요.

날씨 관측과 예보를 보려면 클릭하세요.

지도 변경 : 확대하려면 엑스 표시가 있는 녹색 버튼, 축소하려면 빼기 표시가 있는 녹색 버튼, 다음 페이지의 지도를 보려면 녹색 화살표를 클릭하세요.


METAR-TAF: